createdAt,value
2022-11-23T00:01:54.817Z,6.66
2022-11-23T00:04:25.990Z,6.62
2022-11-23T00:06:55.182Z,6.76
2022-11-23T00:09:24.492Z,6.97
2022-11-23T00:11:55.223Z,7.01
2022-11-23T00:14:24.568Z,7.11
2022-11-23T00:16:54.229Z,7.16
2022-11-23T00:19:23.651Z,7.27
2022-11-23T00:21:52.903Z,7.21
2022-11-23T00:24:22.300Z,7.28
2022-11-23T00:26:51.673Z,7.30
2022-11-23T00:29:22.342Z,7.40
2022-11-23T00:31:51.578Z,7.47
2022-11-23T00:34:20.954Z,7.54
2022-11-23T00:36:50.232Z,7.67
2022-11-23T00:39:19.579Z,7.70
2022-11-23T00:41:48.868Z,7.76
2022-11-23T00:44:18.341Z,7.73
2022-11-23T00:46:48.991Z,7.65
2022-11-23T00:49:18.620Z,7.60
2022-11-23T00:51:48.527Z,7.57
2022-11-23T00:54:17.806Z,7.62
2022-11-23T00:56:47.072Z,7.71
2022-11-23T00:59:16.320Z,7.76
2022-11-23T01:01:45.621Z,7.74
2022-11-23T01:04:16.942Z,7.76
2022-11-23T01:06:46.259Z,7.81
2022-11-23T01:09:20.521Z,7.75
2022-11-23T01:11:52.361Z,7.77
2022-11-23T01:14:25.862Z,7.85
2022-11-23T01:16:55.152Z,7.85
2022-11-23T01:19:25.970Z,7.81
2022-11-23T01:21:55.464Z,7.69
2022-11-23T01:24:27.090Z,7.76
2022-11-23T01:26:57.246Z,7.72
2022-11-23T01:29:26.549Z,7.76
2022-11-23T01:31:55.880Z,7.78
2022-11-23T01:34:26.462Z,7.81
2022-11-23T01:36:55.680Z,7.64
2022-11-23T01:39:24.983Z,7.62
2022-11-23T01:41:54.234Z,7.67
2022-11-23T01:44:29.734Z,7.67
2022-11-23T01:47:01.252Z,7.63
2022-11-23T01:49:35.343Z,7.69
2022-11-23T01:52:08.411Z,7.65
2022-11-23T01:54:42.927Z,7.74
2022-11-23T01:57:17.879Z,7.70
2022-11-23T01:59:48.924Z,7.65
2022-11-23T02:02:18.836Z,7.67
2022-11-23T02:04:52.454Z,7.57
2022-11-23T02:07:24.375Z,7.62
2022-11-23T02:09:54.223Z,7.68
2022-11-23T02:12:23.492Z,7.64
2022-11-23T02:14:53.043Z,7.72
2022-11-23T02:17:22.733Z,7.80
2022-11-23T02:20:04.887Z,7.76
2022-11-23T02:22:42.314Z,7.74
2022-11-23T02:25:20.893Z,7.78
2022-11-23T02:27:52.233Z,7.82
2022-11-23T02:30:21.773Z,7.90
2022-11-23T02:32:54.222Z,7.95
2022-11-23T02:35:23.723Z,7.91
2022-11-23T02:37:54.139Z,7.86
2022-11-23T02:40:30.360Z,7.89
2022-11-23T02:43:02.302Z,7.98
2022-11-23T02:45:39.247Z,7.90
2022-11-23T02:48:08.873Z,7.78
2022-11-23T02:50:40.513Z,7.81
2022-11-23T02:53:10.260Z,7.86
2022-11-23T02:55:39.530Z,7.90
2022-11-23T02:58:10.981Z,7.95
2022-11-23T03:00:40.511Z,7.83
2022-11-23T03:03:09.872Z,7.96
2022-11-23T03:05:39.321Z,8.05
2022-11-23T03:08:08.752Z,8.03
2022-11-23T03:10:40.659Z,8.03
2022-11-23T03:13:11.693Z,8.15
2022-11-23T03:15:42.604Z,8.12
2022-11-23T03:18:12.733Z,8.12
2022-11-23T03:20:42.230Z,8.08
2022-11-23T03:23:11.523Z,8.05
2022-11-23T03:25:41.962Z,8.06
2022-11-23T03:28:13.127Z,8.03
2022-11-23T03:30:44.865Z,8.03
2022-11-23T03:33:14.282Z,8.08
2022-11-23T03:35:43.509Z,8.18
2022-11-23T03:38:22.450Z,8.13
2022-11-23T03:40:51.792Z,8.09
2022-11-23T03:43:32.393Z,7.95
2022-11-23T03:46:01.735Z,8.05
2022-11-23T03:48:31.027Z,7.99
2022-11-23T03:51:00.300Z,7.92
2022-11-23T03:53:29.601Z,7.90
2022-11-23T03:55:58.839Z,7.94
2022-11-23T03:58:32.762Z,7.92
2022-11-23T04:01:03.480Z,7.98
2022-11-23T04:03:32.871Z,7.96
2022-11-23T04:06:11.694Z,8.00
2022-11-23T04:09:03.294Z,7.80
2022-11-23T04:11:42.945Z,7.80
2022-11-23T04:14:13.629Z,7.90
2022-11-23T04:16:43.333Z,7.88
2022-11-23T04:19:13.199Z,7.80
2022-11-23T04:21:42.411Z,7.79
2022-11-23T04:24:12.399Z,7.74
2022-11-23T04:26:43.243Z,7.70
2022-11-23T04:29:16.259Z,7.79
2022-11-23T04:31:50.692Z,7.82
2022-11-23T04:34:21.710Z,7.69
2022-11-23T04:36:52.934Z,7.68
2022-11-23T04:39:29.293Z,7.61
2022-11-23T04:42:13.477Z,7.59
2022-11-23T04:44:50.079Z,7.57
2022-11-23T04:47:20.226Z,7.58
2022-11-23T04:49:50.772Z,7.51
2022-11-23T04:52:21.479Z,7.57
2022-11-23T04:54:52.703Z,7.57
2022-11-23T04:57:21.985Z,7.63
2022-11-23T04:59:55.720Z,7.59
2022-11-23T05:02:26.700Z,7.58
2022-11-23T05:05:02.543Z,7.55
2022-11-23T05:07:32.973Z,7.29
2022-11-23T05:10:05.842Z,7.33
2022-11-23T05:12:37.633Z,7.43
2022-11-23T05:15:09.311Z,7.36
2022-11-23T05:17:40.621Z,7.43
2022-11-23T05:20:16.192Z,7.35
2022-11-23T05:22:50.293Z,7.40
2022-11-23T05:25:23.692Z,7.28
2022-11-23T05:28:11.218Z,7.27
2022-11-23T05:30:48.260Z,7.32
2022-11-23T05:33:17.575Z,7.35
2022-11-23T05:35:47.078Z,7.30
2022-11-23T05:38:17.038Z,7.16
2022-11-23T05:40:46.892Z,7.16
2022-11-23T05:43:17.529Z,7.14
2022-11-23T05:45:48.260Z,7.13
2022-11-23T05:48:17.973Z,7.18
2022-11-23T05:51:03.633Z,7.14
2022-11-23T05:53:37.784Z,7.22
2022-11-23T05:56:29.685Z,7.19
2022-11-23T05:59:20.118Z,7.27
2022-11-23T06:01:55.826Z,7.28
2022-11-23T06:04:30.039Z,7.31
2022-11-23T06:07:01.380Z,7.14
2022-11-23T06:09:39.316Z,7.33
2022-11-23T06:12:11.712Z,7.40
2022-11-23T06:14:41.260Z,7.41
2022-11-23T06:17:12.057Z,7.37
2022-11-23T06:19:46.003Z,7.38
2022-11-23T06:22:16.462Z,7.30
2022-11-23T06:25:03.790Z,7.31
2022-11-23T06:27:36.144Z,7.26
2022-11-23T06:30:11.674Z,7.18
2022-11-23T06:32:42.672Z,7.27
2022-11-23T06:35:12.341Z,7.19
2022-11-23T06:37:43.789Z,7.19
2022-11-23T06:40:14.941Z,7.34
2022-11-23T06:42:45.173Z,7.40
2022-11-23T06:45:23.163Z,7.45
2022-11-23T06:47:58.124Z,7.42
2022-11-23T06:50:28.032Z,7.42
2022-11-23T06:52:57.739Z,7.39
2022-11-23T06:55:38.870Z,7.41
2022-11-23T06:58:09.382Z,7.29
2022-11-23T07:00:38.678Z,7.28
2022-11-23T07:03:20.434Z,7.43
2022-11-23T07:05:52.193Z,7.37
2022-11-23T07:08:23.914Z,7.30
2022-11-23T07:10:53.267Z,7.35
2022-11-23T07:13:23.829Z,7.30
2022-11-23T07:15:53.178Z,7.20
2022-11-23T07:18:24.043Z,7.18
2022-11-23T07:20:59.642Z,7.07
2022-11-23T07:23:29.136Z,6.97
2022-11-23T07:25:58.581Z,6.99
2022-11-23T07:28:27.858Z,7.00
2022-11-23T07:30:57.212Z,6.93
2022-11-23T07:33:28.219Z,7.09
2022-11-23T07:35:58.059Z,6.94
2022-11-23T07:38:27.556Z,6.97
2022-11-23T07:40:59.109Z,7.04
2022-11-23T07:43:45.622Z,7.00
2022-11-23T07:46:16.144Z,7.05
2022-11-23T07:48:46.883Z,6.95
2022-11-23T07:51:16.430Z,7.10
2022-11-23T07:53:45.960Z,7.19
2022-11-23T07:56:15.356Z,7.21
2022-11-23T07:58:44.580Z,7.25
2022-11-23T08:01:18.190Z,7.29
2022-11-23T08:03:49.931Z,7.25
2022-11-23T08:06:19.322Z,7.35
2022-11-23T08:08:48.612Z,7.22
2022-11-23T08:11:18.990Z,7.21
2022-11-23T08:13:48.277Z,7.42
2022-11-23T08:16:17.634Z,7.36
2022-11-23T08:18:50.955Z,7.35
2022-11-23T08:21:20.313Z,7.31
2022-11-23T08:23:49.683Z,7.60
2022-11-23T08:26:19.042Z,7.52
2022-11-23T08:28:48.961Z,7.37
2022-11-23T08:31:18.255Z,7.55
2022-11-23T08:33:48.986Z,7.60
2022-11-23T08:36:18.828Z,7.69
2022-11-23T08:38:51.500Z,7.92
2022-11-23T08:41:21.334Z,8.01
2022-11-23T08:43:50.743Z,8.02
2022-11-23T08:46:20.894Z,8.11
2022-11-23T08:48:51.852Z,8.24
2022-11-23T08:51:23.128Z,8.34
2022-11-23T08:53:52.485Z,8.40
2022-11-23T08:56:22.042Z,8.43
2022-11-23T08:58:51.712Z,8.52
2022-11-23T09:01:21.025Z,8.50
2022-11-23T09:03:51.862Z,8.59
2022-11-23T09:06:21.116Z,8.70
2022-11-23T09:08:50.389Z,8.67
2022-11-23T09:11:19.776Z,8.60
2022-11-23T09:13:49.267Z,8.70
2022-11-23T09:16:18.670Z,8.63
2022-11-23T09:18:49.618Z,8.67
2022-11-23T09:21:20.785Z,8.80
2022-11-23T09:23:50.111Z,8.78
2022-11-23T09:26:19.414Z,8.77
2022-11-23T09:28:48.683Z,8.84
2022-11-23T09:31:18.732Z,8.82
2022-11-23T09:33:48.033Z,8.77
2022-11-23T09:36:17.320Z,8.94
2022-11-23T09:38:56.955Z,9.11
2022-11-23T09:41:49.290Z,9.21
2022-11-23T09:44:26.804Z,9.15
2022-11-23T09:47:10.474Z,9.16
2022-11-23T09:49:47.282Z,9.22
2022-11-23T09:52:19.980Z,9.09
2022-11-23T09:54:55.301Z,9.14
2022-11-23T09:57:28.304Z,9.06
2022-11-23T10:00:01.943Z,9.09
2022-11-23T10:02:38.449Z,9.28
2022-11-23T10:05:08.952Z,9.33
2022-11-23T10:07:50.925Z,9.30
2022-11-23T10:10:35.252Z,9.38
2022-11-23T10:13:16.728Z,9.32
2022-11-23T10:15:58.776Z,9.38
2022-11-23T10:18:37.868Z,9.34
2022-11-23T10:21:18.472Z,9.33
2022-11-23T10:23:55.836Z,9.47
2022-11-23T10:26:31.017Z,9.54
2022-11-23T10:29:11.869Z,9.62
2022-11-23T10:31:45.220Z,9.63
2022-11-23T10:34:16.301Z,9.70
2022-11-23T10:36:45.581Z,9.64
2022-11-23T10:39:25.303Z,9.60
2022-11-23T10:42:04.608Z,9.78
2022-11-23T10:44:38.098Z,9.83
2022-11-23T10:47:07.520Z,9.71
2022-11-23T10:49:37.602Z,9.85
2022-11-23T10:52:26.828Z,9.88
2022-11-23T10:54:58.756Z,9.87
2022-11-23T10:57:34.981Z,9.94
2022-11-23T11:00:15.413Z,10.04
2022-11-23T11:02:46.742Z,9.99
2022-11-23T11:05:53.565Z,9.96
2022-11-23T11:08:19.095Z,10.14
2022-11-23T11:10:50.744Z,10.15
2022-11-23T11:13:26.561Z,10.25
2022-11-23T11:15:57.784Z,10.36
2022-11-23T11:18:30.261Z,10.43
2022-11-23T11:21:02.631Z,10.76
2022-11-23T11:23:33.190Z,10.77
2022-11-23T11:26:09.190Z,10.84
2022-11-23T11:28:43.705Z,10.49
2022-11-23T11:31:50.532Z,10.44
2022-11-23T11:34:25.214Z,10.43
2022-11-23T11:37:03.969Z,10.33
2022-11-23T11:39:39.798Z,10.19
2022-11-23T11:42:18.253Z,10.17
2022-11-23T11:44:53.810Z,10.09
2022-11-23T11:47:33.179Z,9.90
2022-11-23T11:50:09.640Z,9.82
2022-11-23T11:52:42.843Z,9.99
2022-11-23T11:55:16.755Z,10.03
2022-11-23T11:57:49.168Z,10.13
2022-11-23T12:00:22.281Z,10.23
2022-11-23T12:03:02.571Z,10.28
2022-11-23T12:05:39.353Z,10.28
2022-11-23T12:08:14.512Z,10.59
2022-11-23T12:10:48.880Z,10.84
2022-11-23T12:13:20.431Z,10.86
2022-11-23T12:15:57.866Z,10.78
2022-11-23T12:18:58.183Z,10.69
2022-11-23T12:21:54.442Z,10.66
2022-11-23T12:24:35.614Z,10.48
2022-11-23T12:27:16.449Z,10.55
2022-11-23T12:30:03.461Z,10.59
2022-11-23T12:32:44.190Z,10.61
2022-11-23T12:35:36.379Z,10.75
2022-11-23T12:38:16.771Z,10.81
2022-11-23T12:40:59.718Z,10.89
2022-11-23T12:43:36.590Z,10.84
2022-11-23T12:46:15.034Z,10.73
2022-11-23T12:49:00.029Z,10.68
2022-11-23T12:51:37.555Z,10.87
2022-11-23T12:54:23.168Z,10.97
2022-11-23T12:57:05.816Z,11.06
2022-11-23T12:59:44.245Z,11.13
2022-11-23T13:02:38.347Z,11.16
2022-11-23T13:05:33.377Z,11.19
2022-11-23T13:08:29.267Z,11.03
2022-11-23T13:11:23.820Z,10.93
2022-11-23T13:14:06.887Z,10.77
2022-11-23T13:17:14.810Z,10.83
2022-11-23T13:20:18.143Z,10.77
2022-11-23T13:22:53.537Z,10.60
2022-11-23T13:25:29.272Z,10.64
2022-11-23T13:28:35.867Z,10.67
2022-11-23T13:31:32.598Z,10.48
2022-11-23T13:34:06.072Z,10.49
2022-11-23T13:40:08.751Z,10.44
2022-11-23T13:42:43.160Z,10.40
2022-11-23T13:45:34.698Z,10.35
2022-11-23T13:48:09.595Z,10.20
2022-11-23T13:50:57.328Z,10.36
2022-11-23T13:53:31.757Z,10.31
2022-11-23T13:56:24.276Z,10.21
2022-11-23T13:58:56.014Z,10.23
2022-11-23T14:02:17.086Z,10.38
2022-11-23T14:04:48.504Z,10.37
2022-11-23T14:07:22.942Z,10.24
2022-11-23T14:09:57.209Z,10.11
2022-11-23T14:12:38.870Z,10.23
2022-11-23T14:15:17.108Z,10.05
2022-11-23T14:18:16.604Z,10.13
2022-11-23T14:21:08.548Z,10.10
2022-11-23T14:24:16.544Z,10.00
2022-11-23T14:27:23.808Z,9.89
2022-11-23T14:30:32.615Z,9.86
2022-11-23T14:33:20.781Z,9.78
2022-11-23T14:36:02.602Z,9.76
2022-11-23T14:39:21.947Z,9.77
2022-11-23T14:41:58.939Z,9.68
2022-11-23T14:44:38.601Z,9.70
2022-11-23T14:47:13.907Z,9.66
2022-11-23T14:49:55.923Z,9.53
2022-11-23T14:52:47.421Z,9.25
2022-11-23T14:55:24.427Z,9.25
2022-11-23T14:58:01.781Z,9.26
2022-11-23T15:00:38.149Z,9.16
2022-11-23T15:03:48.631Z,9.01
2022-11-23T15:06:11.792Z,8.84
2022-11-23T15:08:47.983Z,8.69
2022-11-23T15:11:22.287Z,8.53
2022-11-23T15:13:54.814Z,8.51
2022-11-23T15:16:24.194Z,8.39
2022-11-23T15:18:55.068Z,8.43
2022-11-23T15:21:27.815Z,8.37
2022-11-23T15:24:00.285Z,8.38
2022-11-23T15:26:48.798Z,8.32
2022-11-23T15:29:33.763Z,8.05
2022-11-23T15:32:29.448Z,8.14
2022-11-23T15:34:57.961Z,8.04
2022-11-23T15:37:28.435Z,8.10
2022-11-23T15:39:58.745Z,8.09
2022-11-23T15:42:29.143Z,8.08
2022-11-23T15:44:58.624Z,7.92
2022-11-23T15:47:31.396Z,7.94
2022-11-23T15:50:05.108Z,7.88
2022-11-23T15:52:37.637Z,7.82
2022-11-23T15:55:10.595Z,7.83
2022-11-23T15:57:41.503Z,7.76
2022-11-23T16:00:24.043Z,7.76
2022-11-23T16:02:54.078Z,7.77
2022-11-23T16:05:25.762Z,7.67
2022-11-23T16:07:57.764Z,7.64
2022-11-23T16:10:29.085Z,7.67
2022-11-23T16:12:59.881Z,7.57
2022-11-23T16:15:43.826Z,7.45
2022-11-23T16:18:23.143Z,7.63
2022-11-23T16:20:57.954Z,7.56
2022-11-23T16:23:34.663Z,7.55
2022-11-23T16:26:06.416Z,7.49
2022-11-23T16:28:38.391Z,7.50
2022-11-23T16:31:08.321Z,7.42
2022-11-23T16:33:37.750Z,7.38
2022-11-23T16:36:09.041Z,7.35
2022-11-23T16:38:38.300Z,7.17
2022-11-23T16:41:07.895Z,6.85
2022-11-23T16:43:37.241Z,6.75
2022-11-23T16:46:06.987Z,6.59
2022-11-23T16:48:41.818Z,6.68
2022-11-23T16:51:14.735Z,6.83
2022-11-23T16:56:35.671Z,6.97
2022-11-23T16:59:05.292Z,6.95
2022-11-23T17:01:38.448Z,6.92
2022-11-23T17:04:07.882Z,6.93
2022-11-23T17:06:38.734Z,6.73
2022-11-23T17:09:08.580Z,6.66
2022-11-23T17:11:41.901Z,6.75
2022-11-23T17:14:18.800Z,6.81
2022-11-23T17:16:48.878Z,6.66
2022-11-23T17:19:19.837Z,6.64
2022-11-23T17:21:50.659Z,6.62
2022-11-23T17:24:20.098Z,6.63
2022-11-23T17:26:53.242Z,6.57
2022-11-23T17:29:24.351Z,6.57
2022-11-23T17:31:53.707Z,6.62
2022-11-23T17:34:23.585Z,6.53
2022-11-23T17:36:54.489Z,6.54
2022-11-23T17:39:26.067Z,6.51
2022-11-23T17:42:01.577Z,6.59
2022-11-23T17:44:34.154Z,6.66
2022-11-23T17:47:04.075Z,6.65
2022-11-23T17:49:33.746Z,6.77
2022-11-23T17:52:05.040Z,6.68
2022-11-23T17:54:34.553Z,6.68
2022-11-23T17:57:04.087Z,6.66
2022-11-23T17:59:34.403Z,6.66
2022-11-23T18:02:32.389Z,6.70
2022-11-23T18:05:01.755Z,6.74
2022-11-23T18:07:32.680Z,6.71
2022-11-23T18:10:01.972Z,6.83
2022-11-23T18:12:31.370Z,6.82
2022-11-23T18:15:00.682Z,6.85
2022-11-23T18:17:30.111Z,6.82
2022-11-23T18:19:59.674Z,6.85
2022-11-23T18:22:29.730Z,6.92
2022-11-23T18:25:00.629Z,6.97
2022-11-23T18:27:30.090Z,6.94
2022-11-23T18:29:59.491Z,6.92
2022-11-23T18:32:29.199Z,7.03
2022-11-23T18:34:58.610Z,7.11
2022-11-23T18:37:27.910Z,6.96
2022-11-23T18:40:00.545Z,7.07
2022-11-23T18:42:31.906Z,7.08
2022-11-23T18:45:01.408Z,7.07
2022-11-23T18:47:30.820Z,7.05
2022-11-23T18:50:06.802Z,6.96
2022-11-23T18:52:38.002Z,7.03
2022-11-23T18:55:08.672Z,7.01
2022-11-23T18:57:39.532Z,7.05
2022-11-23T19:00:17.154Z,7.08
2022-11-23T19:02:53.206Z,7.11
2022-11-23T19:05:23.820Z,7.03
2022-11-23T19:07:53.352Z,7.03
2022-11-23T19:10:22.838Z,7.07
2022-11-23T19:12:55.071Z,7.11
2022-11-23T19:15:24.419Z,7.19
2022-11-23T19:17:54.274Z,7.22
2022-11-23T19:20:23.948Z,7.14
2022-11-23T19:22:53.442Z,7.22
2022-11-23T19:25:22.851Z,7.29
2022-11-23T19:27:54.510Z,7.26
2022-11-23T19:30:23.985Z,7.34
2022-11-23T19:32:53.472Z,7.33
2022-11-23T19:35:22.899Z,7.28
2022-11-23T19:37:55.951Z,7.25
2022-11-23T19:40:26.318Z,7.09
2022-11-23T19:42:57.041Z,7.27
2022-11-23T19:45:55.551Z,7.15
2022-11-23T19:48:25.701Z,7.32
2022-11-23T19:50:58.522Z,7.31
2022-11-23T19:53:54.852Z,7.25
2022-11-23T19:56:51.642Z,7.20
2022-11-23T19:59:24.291Z,7.21
2022-11-23T20:01:54.778Z,7.25
2022-11-23T20:04:24.205Z,7.19
2022-11-23T20:06:53.742Z,7.15
2022-11-23T20:09:25.075Z,7.05
2022-11-23T20:11:54.533Z,7.14
2022-11-23T20:14:27.657Z,7.22
2022-11-23T20:16:57.119Z,7.21
2022-11-23T20:19:27.458Z,7.33
2022-11-23T20:21:56.997Z,7.19
2022-11-23T20:24:26.405Z,7.18
2022-11-23T20:26:55.819Z,7.33
2022-11-23T20:29:25.156Z,7.29
2022-11-23T20:31:56.094Z,7.19
2022-11-23T20:34:31.952Z,6.96
2022-11-23T20:37:01.334Z,6.98
2022-11-23T20:39:30.659Z,7.11
2022-11-23T20:42:00.020Z,7.22
2022-11-23T20:44:33.729Z,7.16
2022-11-23T20:47:05.047Z,7.21
2022-11-23T20:49:34.597Z,7.22
2022-11-23T20:52:07.162Z,7.37
2022-11-23T20:54:45.290Z,7.33
2022-11-23T20:57:17.371Z,7.34
2022-11-23T20:59:47.608Z,7.33
2022-11-23T21:02:18.532Z,7.23
2022-11-23T21:04:47.972Z,7.25
2022-11-23T21:07:17.372Z,7.31
2022-11-23T21:09:47.098Z,7.27
2022-11-23T21:12:33.885Z,7.14
2022-11-23T21:15:03.322Z,7.29
2022-11-23T21:17:34.177Z,7.33
2022-11-23T21:20:03.909Z,7.40
2022-11-23T21:22:33.239Z,7.39
2022-11-23T21:25:02.567Z,7.36
2022-11-23T21:27:33.458Z,7.28
2022-11-23T21:30:02.792Z,7.35
2022-11-23T21:32:33.514Z,7.32
2022-11-23T21:35:02.833Z,7.22
2022-11-23T21:37:32.210Z,7.18
2022-11-23T21:40:01.604Z,7.16
2022-11-23T21:42:31.039Z,7.33
2022-11-23T21:45:00.638Z,7.23
2022-11-23T21:47:30.158Z,7.21
2022-11-23T21:50:01.189Z,7.18
2022-11-23T21:52:30.679Z,6.92
2022-11-23T21:55:00.012Z,6.89
2022-11-23T21:57:29.318Z,7.05
2022-11-23T21:59:58.833Z,7.11
2022-11-23T22:02:28.705Z,7.29
2022-11-23T22:04:58.370Z,7.16
2022-11-23T22:07:30.484Z,7.21
2022-11-23T22:09:59.848Z,7.33
2022-11-23T22:12:29.307Z,7.41
2022-11-23T22:14:58.658Z,7.21
2022-11-23T22:17:28.041Z,7.05
2022-11-23T22:19:57.331Z,7.16
2022-11-23T22:22:26.670Z,7.27
2022-11-23T22:24:57.345Z,7.02
2022-11-23T22:27:26.623Z,7.24
2022-11-23T22:29:56.037Z,7.14
2022-11-23T22:32:25.409Z,7.24
2022-11-23T22:34:54.770Z,7.06
2022-11-23T22:37:24.091Z,7.14
2022-11-23T22:39:53.463Z,7.19
2022-11-23T22:42:24.124Z,7.23
2022-11-23T22:44:53.498Z,7.37
2022-11-23T22:47:23.029Z,7.43
2022-11-23T22:49:52.298Z,7.23
2022-11-23T22:52:21.596Z,7.21
2022-11-23T22:54:50.867Z,7.19
2022-11-23T22:57:20.566Z,7.38
2022-11-23T22:59:53.367Z,7.38
2022-11-23T23:02:22.879Z,7.36
2022-11-23T23:04:52.259Z,7.44
2022-11-23T23:07:21.649Z,7.31
2022-11-23T23:09:51.022Z,7.20
2022-11-23T23:12:20.390Z,7.38
2022-11-23T23:14:51.199Z,7.51
2022-11-23T23:17:20.569Z,7.27
2022-11-23T23:19:50.114Z,7.11
2022-11-23T23:22:19.919Z,7.07
2022-11-23T23:24:49.236Z,7.18
2022-11-23T23:27:18.562Z,6.97
2022-11-23T23:29:47.896Z,6.81
2022-11-23T23:32:19.612Z,6.75
2022-11-23T23:34:48.994Z,6.92
2022-11-23T23:37:18.388Z,6.85
2022-11-23T23:39:47.888Z,6.93
2022-11-23T23:42:17.173Z,7.02
2022-11-23T23:44:46.446Z,7.08
2022-11-23T23:47:15.786Z,7.24
2022-11-23T23:49:46.906Z,7.23
2022-11-23T23:52:16.142Z,7.41
2022-11-23T23:54:45.496Z,7.60
2022-11-23T23:57:14.772Z,7.65
2022-11-23T23:59:43.993Z,7.58
